createdAt,value
2019-06-20T00:02:04.867Z,3.93
2019-06-20T00:04:33.521Z,3.60
2019-06-20T00:07:02.638Z,3.47
2019-06-20T00:09:34.524Z,3.50
2019-06-20T00:12:03.175Z,4.03
2019-06-20T00:14:31.915Z,3.17
2019-06-20T00:17:03.145Z,3.57
2019-06-20T00:19:31.717Z,2.97
2019-06-20T00:22:00.982Z,2.83
2019-06-20T00:24:30.020Z,2.50
2019-06-20T00:26:59.013Z,2.20
2019-06-20T00:29:28.095Z,2.93
2019-06-20T00:31:56.749Z,2.30
2019-06-20T00:34:25.303Z,2.80
2019-06-20T00:36:53.910Z,3.03
2019-06-20T00:39:22.634Z,2.40
2019-06-20T00:41:51.397Z,2.70
2019-06-20T00:44:20.386Z,2.40
2019-06-20T00:46:50.560Z,1.57
2019-06-20T00:49:19.118Z,2.17
2019-06-20T00:51:47.771Z,2.20
2019-06-20T00:54:16.346Z,1.90
2019-06-20T00:56:45.055Z,2.17
2019-06-20T00:59:13.892Z,1.90
2019-06-20T01:01:42.391Z,1.97
2019-06-20T01:04:10.992Z,2.07
2019-06-20T01:06:39.593Z,2.00
2019-06-20T01:09:09.206Z,2.17
2019-06-20T01:11:40.947Z,1.97
2019-06-20T01:14:09.609Z,2.40
2019-06-20T01:16:38.254Z,2.60
2019-06-20T01:19:06.943Z,3.00
2019-06-20T01:21:35.514Z,2.80
2019-06-20T01:24:04.413Z,3.00
2019-06-20T01:26:33.051Z,3.40
2019-06-20T01:29:01.673Z,3.47
2019-06-20T01:31:30.392Z,3.20
2019-06-20T01:33:58.963Z,2.90
2019-06-20T01:36:27.529Z,3.20
2019-06-20T01:38:56.078Z,2.80
2019-06-20T01:41:24.647Z,3.03
2019-06-20T01:43:53.199Z,3.30
2019-06-20T01:46:21.775Z,2.90
2019-06-20T01:48:50.339Z,2.80
2019-06-20T01:51:18.903Z,2.93
2019-06-20T01:53:47.525Z,2.63
2019-06-20T01:56:16.119Z,3.60
2019-06-20T01:58:44.661Z,3.07
2019-06-20T02:01:13.287Z,2.77
2019-06-20T02:03:41.762Z,2.90
2019-06-20T02:06:10.415Z,3.60
2019-06-20T02:08:39.036Z,3.07
2019-06-20T02:11:07.628Z,2.70
2019-06-20T02:13:36.195Z,2.83
2019-06-20T02:16:05.162Z,3.07
2019-06-20T02:18:33.723Z,2.27
2019-06-20T02:21:02.420Z,2.73
2019-06-20T02:23:31.131Z,2.40
2019-06-20T02:25:59.673Z,2.47
2019-06-20T02:28:28.245Z,2.60
2019-06-20T02:30:56.822Z,2.97
2019-06-20T02:33:25.448Z,2.70
2019-06-20T02:35:54.079Z,2.60
2019-06-20T02:38:22.702Z,2.57
2019-06-20T02:40:51.272Z,3.17
2019-06-20T02:43:19.813Z,3.30
2019-06-20T02:45:48.369Z,3.40
2019-06-20T02:48:17.013Z,3.13
2019-06-20T02:50:45.701Z,2.80
2019-06-20T02:53:14.275Z,3.30
2019-06-20T02:55:42.892Z,3.50
2019-06-20T02:58:11.469Z,3.20
2019-06-20T03:00:59.700Z,3.80
2019-06-20T03:03:28.835Z,3.17
2019-06-20T03:05:58.395Z,3.70
2019-06-20T03:08:27.226Z,3.40
2019-06-20T03:10:55.710Z,3.20
2019-06-20T03:13:24.352Z,4.07
2019-06-20T03:15:52.832Z,3.50
2019-06-20T03:18:21.397Z,3.50
2019-06-20T03:20:49.886Z,4.60
2019-06-20T03:23:18.532Z,3.63
2019-06-20T03:25:47.080Z,3.80
2019-06-20T03:28:15.726Z,3.30
2019-06-20T03:30:44.268Z,3.43
2019-06-20T03:33:12.919Z,3.17
2019-06-20T03:35:41.534Z,4.17
2019-06-20T03:38:10.102Z,4.10
2019-06-20T03:40:38.671Z,4.13
2019-06-20T03:43:07.241Z,3.80
2019-06-20T03:45:36.046Z,3.80
2019-06-20T03:48:04.758Z,4.20
2019-06-20T03:50:33.501Z,3.60
2019-06-20T03:53:02.078Z,3.90
2019-06-20T03:55:31.964Z,3.27
2019-06-20T03:58:01.379Z,3.27
2019-06-20T04:00:34.510Z,3.00
2019-06-20T04:03:04.208Z,3.90
2019-06-20T04:05:32.893Z,3.83
2019-06-20T04:08:01.543Z,3.80
2019-06-20T04:10:30.164Z,4.00
2019-06-20T04:12:58.724Z,3.87
2019-06-20T04:15:27.380Z,3.77
2019-06-20T04:17:55.966Z,4.30
2019-06-20T04:20:24.532Z,4.10
2019-06-20T04:22:53.151Z,4.87
2019-06-20T04:25:21.728Z,3.87
2019-06-20T04:27:50.325Z,3.73
2019-06-20T04:30:19.024Z,4.17
2019-06-20T04:32:47.617Z,3.90
2019-06-20T04:35:16.316Z,4.10
2019-06-20T04:37:44.876Z,3.93
2019-06-20T04:40:13.638Z,3.97
2019-06-20T04:42:42.221Z,3.73
2019-06-20T04:45:12.479Z,3.83
2019-06-20T04:47:41.001Z,4.10
2019-06-20T04:50:09.714Z,4.10
2019-06-20T04:52:38.264Z,4.13
2019-06-20T04:55:06.973Z,3.60
2019-06-20T04:57:35.461Z,3.97
2019-06-20T05:00:06.480Z,4.00
2019-06-20T05:02:35.040Z,4.17
2019-06-20T05:05:05.749Z,3.63
2019-06-20T05:07:34.376Z,3.47
2019-06-20T05:10:03.450Z,3.23
2019-06-20T05:12:32.076Z,4.07
2019-06-20T05:15:00.640Z,3.20
2019-06-20T05:17:29.118Z,3.70
2019-06-20T05:19:57.710Z,3.20
2019-06-20T05:22:26.319Z,3.37
2019-06-20T05:24:54.887Z,3.20
2019-06-20T05:27:23.440Z,2.83
2019-06-20T05:29:51.927Z,3.30
2019-06-20T05:32:20.490Z,3.10
2019-06-20T05:34:49.072Z,3.10
2019-06-20T05:37:17.629Z,3.10
2019-06-20T05:39:46.204Z,2.90
2019-06-20T05:42:14.834Z,3.37
2019-06-20T05:44:43.404Z,3.50
2019-06-20T05:47:13.932Z,3.67
2019-06-20T05:49:42.190Z,3.80
2019-06-20T05:52:10.809Z,4.43
2019-06-20T05:54:39.849Z,4.43
2019-06-20T05:57:08.417Z,4.37
2019-06-20T05:59:36.984Z,4.50
2019-06-20T06:02:05.660Z,4.50
2019-06-20T06:04:34.213Z,3.97
2019-06-20T06:07:02.814Z,4.43
2019-06-20T06:09:32.227Z,5.03
2019-06-20T06:12:00.779Z,5.43
2019-06-20T06:14:29.424Z,5.00
2019-06-20T06:16:58.042Z,5.40
2019-06-20T06:19:26.697Z,5.00
2019-06-20T06:21:55.267Z,4.70
2019-06-20T06:24:23.918Z,5.30
2019-06-20T06:26:52.557Z,5.43
2019-06-20T06:29:21.140Z,6.20
2019-06-20T06:31:49.698Z,6.53
2019-06-20T06:34:21.881Z,6.60
2019-06-20T06:36:48.553Z,6.10
2019-06-20T06:39:17.121Z,5.80
2019-06-20T06:41:45.709Z,6.03
2019-06-20T06:44:14.298Z,5.70
2019-06-20T06:46:49.912Z,5.67
2019-06-20T06:49:13.133Z,5.73
2019-06-20T06:51:41.726Z,5.90
2019-06-20T06:54:10.289Z,4.40
2019-06-20T06:56:38.890Z,5.20
2019-06-20T06:59:07.556Z,4.37
2019-06-20T07:01:36.092Z,4.40
2019-06-20T07:04:05.095Z,4.53
2019-06-20T07:06:33.651Z,5.03
2019-06-20T07:09:02.277Z,4.90
2019-06-20T07:11:30.838Z,4.90
2019-06-20T07:13:59.457Z,5.40
2019-06-20T07:16:28.055Z,5.50
2019-06-20T07:18:56.644Z,6.27
2019-06-20T07:21:25.241Z,6.20
2019-06-20T07:23:53.796Z,5.73
2019-06-20T07:26:22.370Z,6.30
2019-06-20T07:28:51.636Z,6.40
2019-06-20T07:31:20.308Z,7.93
2019-06-20T07:33:48.921Z,4.90
2019-06-20T07:36:17.434Z,5.40
2019-06-20T07:38:46.059Z,5.50
2019-06-20T07:41:14.706Z,4.70
2019-06-20T07:43:43.283Z,4.93
2019-06-20T07:46:11.839Z,4.00
2019-06-20T07:48:40.417Z,4.37
2019-06-20T07:51:08.968Z,4.27
2019-06-20T07:53:37.506Z,5.13
2019-06-20T07:56:09.300Z,4.50
2019-06-20T07:58:36.337Z,4.47
2019-06-20T08:01:05.294Z,4.73
2019-06-20T08:03:33.917Z,4.50
2019-06-20T08:06:02.648Z,4.70
2019-06-20T08:08:31.263Z,4.70
2019-06-20T08:10:59.841Z,5.20
2019-06-20T08:13:28.433Z,4.23
2019-06-20T08:15:57.022Z,4.37
2019-06-20T08:18:25.580Z,4.67
2019-06-20T08:20:54.192Z,4.10
2019-06-20T08:23:22.752Z,5.10
2019-06-20T08:25:51.463Z,4.97
2019-06-20T08:28:20.050Z,4.63
2019-06-20T08:30:48.613Z,4.80
2019-06-20T08:33:17.368Z,4.80
2019-06-20T08:35:45.984Z,5.03
2019-06-20T08:38:14.640Z,4.50
2019-06-20T08:40:43.193Z,4.77
2019-06-20T08:43:11.878Z,4.60
2019-06-20T08:45:41.678Z,4.57
2019-06-20T08:48:10.382Z,3.90
2019-06-20T08:50:39.902Z,4.00
2019-06-20T08:53:08.587Z,4.07
2019-06-20T08:55:37.400Z,4.00
2019-06-20T08:58:06.108Z,3.90
2019-06-20T09:00:37.132Z,3.93
2019-06-20T09:03:07.647Z,3.97
2019-06-20T09:05:36.991Z,3.90
2019-06-20T09:08:10.149Z,3.60
2019-06-20T09:10:43.113Z,3.90
2019-06-20T09:13:13.269Z,4.03
2019-06-20T09:15:42.972Z,4.03
2019-06-20T09:18:11.863Z,3.97
2019-06-20T09:20:40.605Z,4.30
2019-06-20T09:23:09.223Z,4.23
2019-06-20T09:25:38.016Z,4.17
2019-06-20T09:28:07.517Z,4.20
2019-06-20T09:30:37.076Z,4.50
2019-06-20T09:33:06.862Z,4.20
2019-06-20T09:35:36.323Z,4.57
2019-06-20T09:38:05.353Z,4.43
2019-06-20T09:40:34.215Z,4.50
2019-06-20T09:43:03.037Z,3.87
2019-06-20T09:45:32.022Z,4.03
2019-06-20T09:48:00.739Z,3.80
2019-06-20T09:50:29.500Z,4.10
2019-06-20T09:52:58.438Z,3.77
2019-06-20T09:55:28.274Z,3.90
2019-06-20T09:57:58.161Z,3.67
2019-06-20T10:00:28.283Z,4.20
2019-06-20T10:02:57.826Z,3.60
2019-06-20T10:05:26.842Z,3.47
2019-06-20T10:07:56.700Z,3.37
2019-06-20T10:10:30.342Z,3.10
2019-06-20T10:12:59.524Z,3.10
2019-06-20T10:15:33.724Z,3.47
2019-06-20T10:18:02.549Z,3.50
2019-06-20T10:20:31.448Z,3.77
2019-06-20T10:23:03.785Z,3.40
2019-06-20T10:25:32.466Z,3.47
2019-06-20T10:28:01.077Z,3.50
2019-06-20T10:30:30.589Z,3.60
2019-06-20T10:32:59.229Z,3.20
2019-06-20T10:35:28.277Z,3.97
2019-06-20T10:37:57.295Z,3.53
2019-06-20T10:40:27.406Z,3.57
2019-06-20T10:42:57.105Z,3.53
2019-06-20T10:45:45.821Z,3.60
2019-06-20T10:48:14.684Z,3.67
2019-06-20T10:50:44.012Z,3.40
2019-06-20T10:53:13.006Z,3.73
2019-06-20T10:55:43.258Z,3.50
2019-06-20T10:58:12.366Z,3.47
2019-06-20T11:00:42.968Z,4.00
2019-06-20T11:03:12.056Z,3.73
2019-06-20T11:05:42.026Z,3.77
2019-06-20T11:08:11.440Z,3.90
2019-06-20T11:10:42.242Z,3.80
2019-06-20T11:13:11.406Z,3.77
2019-06-20T11:15:44.066Z,3.93
2019-06-20T11:18:12.926Z,3.73
2019-06-20T11:20:42.792Z,4.47
2019-06-20T11:23:11.779Z,3.83
2019-06-20T11:25:41.980Z,4.20
2019-06-20T11:28:10.661Z,4.50
2019-06-20T11:30:53.281Z,3.93
2019-06-20T11:33:09.919Z,4.30
2019-06-20T11:35:39.298Z,3.70
2019-06-20T11:38:08.678Z,3.67
2019-06-20T11:40:38.279Z,4.47
2019-06-20T11:43:08.450Z,4.10
2019-06-20T11:45:37.657Z,4.50
2019-06-20T11:48:07.764Z,3.93
2019-06-20T11:50:37.794Z,4.10
2019-06-20T11:53:06.985Z,3.80
2019-06-20T11:55:35.883Z,4.20
2019-06-20T11:58:05.268Z,4.63
2019-06-20T12:00:37.938Z,4.67
2019-06-20T12:03:06.235Z,3.80
2019-06-20T12:05:34.890Z,4.50
2019-06-20T12:08:03.726Z,4.80
2019-06-20T12:10:32.389Z,4.30
2019-06-20T12:13:00.941Z,5.40
2019-06-20T12:15:29.609Z,4.70
2019-06-20T12:17:58.169Z,5.00
2019-06-20T12:20:26.730Z,4.90
2019-06-20T12:22:55.279Z,5.37
2019-06-20T12:25:24.101Z,5.73
2019-06-20T12:27:52.747Z,5.77
2019-06-20T12:30:23.232Z,6.57
2019-06-20T12:32:51.834Z,6.50
2019-06-20T12:35:20.949Z,7.00
2019-06-20T12:37:50.030Z,6.00
2019-06-20T12:40:19.609Z,6.10
2019-06-20T12:42:49.358Z,6.20
2019-06-20T12:45:18.545Z,5.37
2019-06-20T12:47:47.161Z,5.43
2019-06-20T12:50:16.241Z,5.77
2019-06-20T12:52:45.708Z,4.77
2019-06-20T12:55:15.114Z,6.07
2019-06-20T12:57:44.199Z,4.83
2019-06-20T13:00:14.574Z,4.43
2019-06-20T13:02:43.750Z,4.30
2019-06-20T13:05:14.358Z,4.57
2019-06-20T13:07:44.252Z,7.03
2019-06-20T13:10:13.904Z,5.27
2019-06-20T13:12:43.099Z,5.93
2019-06-20T13:15:13.240Z,5.20
2019-06-20T13:17:43.134Z,5.83
2019-06-20T13:20:12.797Z,5.20
2019-06-20T13:22:42.878Z,4.93
2019-06-20T13:25:14.669Z,6.00
2019-06-20T13:27:43.530Z,6.10
2019-06-20T13:30:12.938Z,6.33
2019-06-20T13:32:42.094Z,5.50
2019-06-20T13:35:13.821Z,6.40
2019-06-20T13:37:43.448Z,5.30
2019-06-20T13:40:13.596Z,6.50
2019-06-20T13:42:43.943Z,7.37
2019-06-20T13:45:24.492Z,7.20
2019-06-20T13:47:53.259Z,6.40
2019-06-20T13:50:23.550Z,7.67
2019-06-20T13:52:52.451Z,7.87
2019-06-20T13:55:21.088Z,7.80
2019-06-20T13:57:49.855Z,6.20
2019-06-20T14:00:20.600Z,7.30
2019-06-20T14:02:51.167Z,7.23
2019-06-20T14:05:19.846Z,6.07
2019-06-20T14:07:53.423Z,7.30
2019-06-20T14:10:20.833Z,6.80
2019-06-20T14:12:49.618Z,6.27
2019-06-20T14:15:18.868Z,5.90
2019-06-20T14:17:49.674Z,6.53
2019-06-20T14:20:19.319Z,6.13
2019-06-20T14:22:49.493Z,6.10
2019-06-20T14:25:20.005Z,6.33
2019-06-20T14:27:49.088Z,5.73
2019-06-20T14:30:18.301Z,5.77
2019-06-20T14:32:47.215Z,5.70
2019-06-20T14:35:17.728Z,6.43
2019-06-20T14:37:47.845Z,7.10
2019-06-20T14:40:16.880Z,7.27
2019-06-20T14:42:45.944Z,8.30
2019-06-20T14:45:15.168Z,7.70
2019-06-20T14:47:43.819Z,7.73
2019-06-20T14:50:14.179Z,7.70
2019-06-20T14:52:44.182Z,7.00
2019-06-20T14:55:13.483Z,7.47
2019-06-20T14:57:44.584Z,7.20
2019-06-20T15:00:13.238Z,6.50
2019-06-20T15:02:41.824Z,7.07
2019-06-20T15:05:15.288Z,6.80
2019-06-20T15:07:45.382Z,6.40
2019-06-20T15:10:15.042Z,6.70
2019-06-20T15:12:45.811Z,6.30
2019-06-20T15:15:13.997Z,6.23
2019-06-20T15:17:42.631Z,6.10
2019-06-20T15:20:11.645Z,5.10
2019-06-20T15:22:40.257Z,4.60
2019-06-20T15:25:09.193Z,5.27
2019-06-20T15:27:38.013Z,5.20
2019-06-20T15:30:08.426Z,4.77
2019-06-20T15:32:36.975Z,4.70
2019-06-20T15:35:07.099Z,4.70
2019-06-20T15:37:35.817Z,4.83
2019-06-20T15:40:08.473Z,5.00
2019-06-20T15:42:36.953Z,4.80
2019-06-20T15:45:06.689Z,4.80
2019-06-20T15:47:35.414Z,4.80
2019-06-20T15:50:06.607Z,4.83
2019-06-20T15:52:35.245Z,5.00
2019-06-20T15:55:07.400Z,4.93
2019-06-20T15:57:36.060Z,4.30
2019-06-20T16:00:09.244Z,5.13
2019-06-20T16:02:37.892Z,4.80
2019-06-20T16:05:07.927Z,4.83
2019-06-20T16:07:36.810Z,5.50
2019-06-20T16:10:13.292Z,5.73
2019-06-20T16:12:41.939Z,4.50
2019-06-20T16:15:12.720Z,4.43
2019-06-20T16:17:41.301Z,5.23
2019-06-20T16:20:11.130Z,5.20
2019-06-20T16:22:39.719Z,4.70
2019-06-20T16:25:08.445Z,4.70
2019-06-20T16:27:37.038Z,4.40
2019-06-20T16:30:09.803Z,4.30
2019-06-20T16:32:38.536Z,4.80
2019-06-20T16:35:08.442Z,4.57
2019-06-20T16:37:37.965Z,4.53
2019-06-20T16:40:11.181Z,4.93
2019-06-20T16:42:39.870Z,4.57
2019-06-20T16:45:08.979Z,5.30
2019-06-20T16:47:37.965Z,5.13
2019-06-20T16:50:07.767Z,4.20
2019-06-20T16:52:36.391Z,4.67
2019-06-20T16:55:07.398Z,4.93
2019-06-20T16:57:35.983Z,4.50
2019-06-20T17:00:08.577Z,4.67
2019-06-20T17:02:37.514Z,4.67
2019-06-20T17:05:07.253Z,6.03
2019-06-20T17:07:35.812Z,5.33
2019-06-20T17:10:06.829Z,5.30
2019-06-20T17:12:35.503Z,5.10
2019-06-20T17:15:05.541Z,5.00
2019-06-20T17:17:34.205Z,5.43
2019-06-20T17:20:03.141Z,4.80
2019-06-20T17:22:31.688Z,5.57
2019-06-20T17:25:00.338Z,5.53
2019-06-20T17:27:28.885Z,5.77
2019-06-20T17:29:57.542Z,4.87
2019-06-20T17:32:26.107Z,4.40
2019-06-20T17:34:54.732Z,4.77
2019-06-20T17:37:23.230Z,5.13
2019-06-20T17:39:51.803Z,4.73
2019-06-20T17:42:20.363Z,5.30
2019-06-20T17:44:48.916Z,5.73
2019-06-20T17:47:17.626Z,5.30
2019-06-20T17:49:46.690Z,4.90
2019-06-20T17:52:15.242Z,4.77
2019-06-20T17:54:43.809Z,4.33
2019-06-20T17:57:12.401Z,4.50
2019-06-20T17:59:41.004Z,4.53
2019-06-20T18:02:09.639Z,4.90
2019-06-20T18:04:38.201Z,4.60
2019-06-20T18:07:06.815Z,4.20
2019-06-20T18:09:35.658Z,5.13
2019-06-20T18:12:04.582Z,4.90
2019-06-20T18:14:34.211Z,4.80
2019-06-20T18:17:02.910Z,5.07
2019-06-20T18:19:31.501Z,5.00
2019-06-20T18:22:00.119Z,4.13
2019-06-20T18:24:28.687Z,4.17
2019-06-20T18:26:57.378Z,4.90
2019-06-20T18:29:25.903Z,4.53
2019-06-20T18:31:54.613Z,4.23
2019-06-20T18:34:30.059Z,4.60
2019-06-20T18:36:53.463Z,4.60
2019-06-20T18:39:22.095Z,4.33
2019-06-20T18:41:50.783Z,5.07
2019-06-20T18:44:19.323Z,4.97
2019-06-20T18:46:48.008Z,4.77
2019-06-20T18:49:16.558Z,4.53
2019-06-20T18:51:45.276Z,4.73
2019-06-20T18:54:14.080Z,5.17
2019-06-20T18:56:42.655Z,5.60
2019-06-20T18:59:11.252Z,5.40
2019-06-20T19:01:39.915Z,4.80
2019-06-20T19:04:08.531Z,5.53
2019-06-20T19:06:37.143Z,5.27
2019-06-20T19:09:08.229Z,5.53
2019-06-20T19:11:36.939Z,5.43
2019-06-20T19:14:06.138Z,4.97
2019-06-20T19:16:34.840Z,5.23
2019-06-20T19:19:03.494Z,5.53
2019-06-20T19:21:32.215Z,5.23
2019-06-20T19:24:00.795Z,6.50
2019-06-20T19:26:29.438Z,6.90
2019-06-20T19:28:58.020Z,7.27
2019-06-20T19:31:27.274Z,6.30
2019-06-20T19:33:55.925Z,6.73
2019-06-20T19:36:24.579Z,6.83
2019-06-20T19:38:53.164Z,6.67
2019-06-20T19:41:22.112Z,6.00
2019-06-20T19:43:50.677Z,5.63
2019-06-20T19:46:19.369Z,6.10
2019-06-20T19:48:48.239Z,5.17
2019-06-20T19:51:16.840Z,6.00
2019-06-20T19:53:46.116Z,6.40
2019-06-20T19:56:14.920Z,5.93
2019-06-20T19:58:43.654Z,5.53
2019-06-20T20:01:12.305Z,5.63
2019-06-20T20:03:41.031Z,5.63
2019-06-20T20:06:09.651Z,5.53
2019-06-20T20:08:38.385Z,5.77
2019-06-20T20:11:06.992Z,5.70
2019-06-20T20:13:36.093Z,5.70
2019-06-20T20:16:04.828Z,5.70
2019-06-20T20:18:33.465Z,4.50
2019-06-20T20:21:02.166Z,5.00
2019-06-20T20:23:30.729Z,4.90
2019-06-20T20:25:59.422Z,6.23
2019-06-20T20:28:28.132Z,5.77
2019-06-20T20:30:56.803Z,6.20
2019-06-20T20:33:25.427Z,5.50
2019-06-20T20:35:54.112Z,5.93
2019-06-20T20:38:22.663Z,6.20
2019-06-20T20:40:51.419Z,5.90
2019-06-20T20:43:19.967Z,6.43
2019-06-20T20:45:48.521Z,6.20
2019-06-20T20:48:17.233Z,5.03
2019-06-20T20:50:45.752Z,5.37
2019-06-20T20:53:14.286Z,5.20
2019-06-20T20:55:43.053Z,4.80
2019-06-20T20:58:11.619Z,4.70
2019-06-20T21:00:59.656Z,4.93
2019-06-20T21:03:28.314Z,4.30
2019-06-20T21:05:56.871Z,5.60
2019-06-20T21:08:25.535Z,5.80
2019-06-20T21:10:54.078Z,5.53
2019-06-20T21:13:22.838Z,6.37
2019-06-20T21:15:51.391Z,6.40
2019-06-20T21:18:20.067Z,7.80
2019-06-20T21:20:48.771Z,8.10
2019-06-20T21:23:17.525Z,9.20
2019-06-20T21:25:46.058Z,9.30
2019-06-20T21:28:14.710Z,8.80
2019-06-20T21:30:43.364Z,9.50
2019-06-20T21:33:11.943Z,10.37
2019-06-20T21:35:40.859Z,9.83
2019-06-20T21:38:09.451Z,11.40
2019-06-20T21:40:38.162Z,10.73
2019-06-20T21:43:06.808Z,12.73
2019-06-20T21:45:35.635Z,11.73
2019-06-20T21:48:04.574Z,13.17
2019-06-20T21:50:52.582Z,13.20
2019-06-20T21:53:21.207Z,13.60
2019-06-20T21:55:49.903Z,14.83
2019-06-20T21:58:18.474Z,14.30
2019-06-20T22:00:50.432Z,12.50
2019-06-20T22:03:19.016Z,11.07
2019-06-20T22:05:47.611Z,9.63
2019-06-20T22:08:16.370Z,10.13
2019-06-20T22:10:45.009Z,10.33
2019-06-20T22:13:13.819Z,8.93
2019-06-20T22:15:42.534Z,9.10
2019-06-20T22:18:11.124Z,8.40
2019-06-20T22:20:39.829Z,9.10
2019-06-20T22:23:12.591Z,9.03
2019-06-20T22:25:42.583Z,8.97
2019-06-20T22:28:14.123Z,9.70
2019-06-20T22:30:48.775Z,9.93
2019-06-20T22:33:23.069Z,8.13
2019-06-20T22:35:51.813Z,8.10
2019-06-20T22:38:20.516Z,8.80
2019-06-20T22:40:49.308Z,8.80
2019-06-20T22:43:18.186Z,9.20
2019-06-20T22:45:46.955Z,9.17
2019-06-20T22:48:15.987Z,10.00
2019-06-20T22:50:44.733Z,9.37
2019-06-20T22:53:13.417Z,9.50
2019-06-20T22:55:42.238Z,8.33
2019-06-20T22:58:10.976Z,9.40
2019-06-20T23:00:40.015Z,9.83
2019-06-20T23:03:09.434Z,8.70
2019-06-20T23:05:38.136Z,10.33
2019-06-20T23:08:06.760Z,10.23
2019-06-20T23:10:35.358Z,9.93
2019-06-20T23:13:04.347Z,10.33
2019-06-20T23:15:33.031Z,10.87
2019-06-20T23:18:01.876Z,11.30
2019-06-20T23:20:30.571Z,10.17
2019-06-20T23:22:59.298Z,10.07
2019-06-20T23:25:28.015Z,9.83
2019-06-20T23:27:57.655Z,10.73
2019-06-20T23:30:26.780Z,10.77
2019-06-20T23:32:55.341Z,10.60
2019-06-20T23:35:24.129Z,11.10
2019-06-20T23:37:53.199Z,11.30
2019-06-20T23:40:22.454Z,12.13
2019-06-20T23:42:51.005Z,13.20
2019-06-20T23:45:19.936Z,14.07
2019-06-20T23:47:48.680Z,14.47
2019-06-20T23:50:18.482Z,16.20
2019-06-20T23:52:50.346Z,16.63
2019-06-20T23:55:18.989Z,16.43
2019-06-20T23:57:47.574Z,15.57
